Time;durP1;ratioP1;P1;durP2;ratioP2;P2;SDS_P1;SDS_P2;PMS_P1;PMS_P2;Temp;Humidity;BMP_temperature;BMP_pressure;BME280_temperature;BME280_humidity;BME280_pressure;Samples;Min_cycle;Max_cycle;Signal;HPM_P1;HPM_P2
2023/04/02 00:01:20;;;;;;;8.90;8.70;;;21.80;62.30;;;;;;4994769;28;20478;-59
2023/04/02 00:04:25;;;;;;;8.30;8.20;;;21.80;62.30;;;;;;4994789;28;20862;-59
2023/04/02 00:07:16;;;;;;;8.37;8.17;;;21.80;62.20;;;;;;4991091;28;20482;-58
2023/04/02 00:09:43;;;;;;;8.90;8.70;;;21.80;62.30;;;;;;5006507;28;20548;-57
2023/04/02 00:12:17;;;;;;;9.10;8.90;;;21.80;62.30;;;;;;5014175;28;20477;-59
2023/04/02 00:14:54;;;;;;;8.23;8.03;;;21.80;62.40;;;;;;5014147;28;20536;-58
2023/04/02 00:17:23;;;;;;;7.77;7.67;;;21.80;62.40;;;;;;5013745;28;20445;-59
2023/04/02 00:19:56;;;;;;;8.53;8.33;;;21.80;62.40;;;;;;5013943;28;20474;-58
2023/04/02 00:22:27;;;;;;;8.47;8.27;;;21.80;62.40;;;;;;5013570;28;20504;-57
2023/04/02 00:24:56;;;;;;;8.20;8.10;;;21.80;62.40;;;;;;5013922;28;20928;-58
2023/04/02 00:27:23;;;;;;;8.37;8.20;;;21.80;62.40;;;;;;5013590;28;20593;-58
2023/04/02 00:29:52;;;;;;;7.80;7.70;;;21.80;62.30;;;;;;5013858;28;20505;-59
2023/04/02 00:32:24;;;;;;;7.90;7.80;;;21.80;62.30;;;;;;5013808;28;20525;-58
2023/04/02 00:34:53;;;;;;;8.07;7.90;;;21.80;62.30;;;;;;5013830;28;20500;-58
2023/04/02 00:37:24;;;;;;;7.90;7.70;;;21.80;62.30;;;;;;5013651;28;20530;-55
2023/04/02 00:39:53;;;;;;;7.60;7.50;;;21.80;62.20;;;;;;5013477;28;20478;-58
2023/04/02 00:42:21;;;;;;;8.27;8.17;;;21.80;62.20;;;;;;5013615;28;20489;-55
2023/04/02 00:44:49;;;;;;;8.23;8.03;;;21.80;62.10;;;;;;5012951;28;20486;-55
2023/04/02 00:47:21;;;;;;;8.00;7.90;;;21.80;62.10;;;;;;5012869;28;20506;-59
2023/04/02 00:49:55;;;;;;;8.10;8.00;;;21.80;62.00;;;;;;5002624;28;20524;-57
2023/04/02 00:52:25;;;;;;;7.90;7.80;;;21.80;61.90;;;;;;5013618;28;20537;-58
2023/04/02 00:55:01;;;;;;;8.00;7.90;;;21.80;61.90;;;;;;5013462;28;20529;-57
2023/04/02 00:57:28;;;;;;;8.10;7.90;;;21.80;61.80;;;;;;5013019;28;20453;-59
2023/04/02 00:59:58;;;;;;;9.07;8.87;;;21.80;61.80;;;;;;5013096;28;20557;-55
2023/04/02 01:02:29;;;;;;;7.40;7.30;;;21.80;61.70;;;;;;5013409;28;20959;-58
2023/04/02 01:04:59;;;;;;;7.40;7.30;;;21.70;61.60;;;;;;5013289;28;20521;-59
2023/04/02 01:07:50;;;;;;;7.77;7.67;;;21.70;61.60;;;;;;5012896;28;20889;-58
2023/04/02 01:10:53;;;;;;;7.93;7.83;;;21.70;61.60;;;;;;5012690;28;20920;-58
2023/04/02 01:13:28;;;;;;;7.80;7.70;;;21.70;61.50;;;;;;5006124;28;20863;-58
2023/04/02 01:16:03;;;;;;;7.83;7.73;;;21.70;61.50;;;;;;5012724;28;20537;-57
2023/04/02 01:18:45;;;;;;;8.57;8.37;;;21.70;61.50;;;;;;5012792;28;20445;-57
2023/04/02 01:21:32;;;;;;;8.20;8.03;;;21.70;61.50;;;;;;5012963;28;20529;-57
2023/04/02 01:24:05;;;;;;;7.80;7.70;;;21.60;61.30;;;;;;5012660;28;20538;-57
2023/04/02 01:26:45;;;;;;;8.50;8.30;;;21.60;61.30;;;;;;5012719;28;20501;-56
2023/04/02 01:29:16;;;;;;;8.60;8.40;;;21.60;61.30;;;;;;5012594;28;20544;-58
2023/04/02 01:31:45;;;;;;;8.47;8.27;;;21.60;61.30;;;;;;5012491;28;20545;-56
2023/04/02 01:34:14;;;;;;;7.90;7.80;;;21.60;61.30;;;;;;5012839;28;20468;-59
2023/04/02 01:36:52;;;;;;;8.60;8.40;;;21.60;61.30;;;;;;5012621;28;20442;-58
2023/04/02 01:39:33;;;;;;;8.30;8.10;;;21.60;61.30;;;;;;5012422;28;20497;-58
2023/04/02 01:42:10;;;;;;;8.97;8.77;;;21.50;61.10;;;;;;5012592;28;20455;-58
2023/04/02 01:44:42;;;;;;;8.73;8.53;;;21.50;61.20;;;;;;5012176;28;21008;-56
2023/04/02 01:47:12;;;;;;;7.90;7.80;;;21.50;61.30;;;;;;5012281;28;20521;-59
2023/04/02 01:49:41;;;;;;;7.80;7.70;;;21.50;61.30;;;;;;5012356;28;20492;-58
2023/04/02 01:52:13;;;;;;;8.30;8.10;;;21.50;61.30;;;;;;5012323;28;20482;-58
2023/04/02 01:54:41;;;;;;;8.90;8.70;;;21.50;62.10;;;;;;5012048;28;20504;-58
2023/04/02 01:57:08;;;;;;;8.90;8.70;;;21.50;61.40;;;;;;5012235;28;20525;-60
2023/04/02 01:59:35;;;;;;;8.50;8.30;;;21.50;61.40;;;;;;5012333;28;20553;-57
2023/04/02 02:02:06;;;;;;;8.30;8.17;;;21.50;61.40;;;;;;5012141;28;20533;-57
2023/04/02 02:04:34;;;;;;;8.57;8.37;;;21.50;61.30;;;;;;5012194;28;20438;-57
2023/04/02 02:07:02;;;;;;;9.03;8.83;;;21.50;61.30;;;;;;5011782;28;20481;-58
2023/04/02 02:09:32;;;;;;;8.90;8.70;;;21.50;61.30;;;;;;5012472;28;20564;-57
2023/04/02 02:12:01;;;;;;;8.80;8.60;;;21.50;61.20;;;;;;5012209;28;20537;-58
2023/04/02 02:14:30;;;;;;;8.97;8.77;;;21.50;61.20;;;;;;5012029;28;20879;-59
2023/04/02 02:17:00;;;;;;;9.00;8.80;;;21.50;61.20;;;;;;5011982;28;20534;-57
2023/04/02 02:19:33;;;;;;;8.90;8.70;;;21.50;61.10;;;;;;5011967;28;20465;-58
2023/04/02 02:22:09;;;;;;;9.10;8.90;;;21.50;61.10;;;;;;5012115;28;20477;-58
2023/04/02 02:24:36;;;;;;;8.43;8.33;;;21.50;61.00;;;;;;5012014;28;20450;-59
2023/04/02 02:27:26;;;;;;;8.27;8.17;;;21.50;61.00;;;;;;5011809;28;20481;-57
2023/04/02 02:29:56;;;;;;;8.20;8.10;;;21.50;61.00;;;;;;4992252;28;20558;-58
2023/04/02 02:32:28;;;;;;;7.80;7.70;;;21.50;61.00;;;;;;4992422;28;20471;-56
2023/04/02 02:35:03;;;;;;;7.77;7.63;;;21.50;60.90;;;;;;4992348;28;20501;-58
2023/04/02 02:37:39;;;;;;;9.10;8.90;;;21.50;60.90;;;;;;4995302;28;20532;-58
2023/04/02 02:40:12;;;;;;;8.50;8.30;;;21.50;60.90;;;;;;5011779;28;20982;-58
2023/04/02 02:42:44;;;;;;;8.20;8.10;;;21.50;60.90;;;;;;5011687;28;20446;-58
2023/04/02 02:45:15;;;;;;;8.60;8.40;;;21.50;60.80;;;;;;5011795;28;20967;-57
2023/04/02 02:47:44;;;;;;;9.60;9.30;;;21.40;60.70;;;;;;5011562;28;20481;-57
2023/04/02 02:50:19;;;;;;;8.93;8.73;;;21.40;60.70;;;;;;5011212;28;20545;-59
2023/04/02 02:52:50;;;;;;;7.90;7.70;;;21.40;60.70;;;;;;5011772;28;20521;-58
2023/04/02 02:55:22;;;;;;;8.13;8.03;;;21.40;60.60;;;;;;5011754;28;20537;-58
2023/04/02 02:57:53;;;;;;;7.87;7.77;;;21.40;60.60;;;;;;5011500;28;20625;-58
2023/04/02 03:00:23;;;;;;;9.20;9.00;;;21.40;60.50;;;;;;5011878;28;21045;-58
2023/04/02 03:02:53;;;;;;;9.00;8.80;;;21.40;60.60;;;;;;5011676;28;20450;-58
2023/04/02 03:05:24;;;;;;;9.30;9.10;;;21.40;60.50;;;;;;5011583;28;20536;-58
2023/04/02 03:07:53;;;;;;;8.50;8.30;;;21.40;60.50;;;;;;5011178;28;20482;-56
2023/04/02 03:10:28;;;;;;;7.87;7.77;;;21.40;60.50;;;;;;5015110;28;20509;-59
2023/04/02 03:13:04;;;;;;;9.50;9.30;;;21.40;60.50;;;;;;5015585;28;20477;-59
2023/04/02 03:15:35;;;;;;;9.50;9.30;;;21.40;60.40;;;;;;5015263;28;20517;-59
2023/04/02 03:18:05;;;;;;;8.70;8.50;;;21.40;60.40;;;;;;5015166;28;20477;-58
2023/04/02 03:20:38;;;;;;;8.70;8.50;;;21.40;60.30;;;;;;5014819;28;20552;-58
2023/04/02 03:23:15;;;;;;;8.23;8.10;;;21.30;60.20;;;;;;5015150;28;20529;-58
2023/04/02 03:25:46;;;;;;;9.17;8.97;;;21.30;60.20;;;;;;5014954;28;20528;-58
2023/04/02 03:28:18;;;;;;;9.30;9.10;;;21.30;60.10;;;;;;5014740;28;20481;-58
2023/04/02 03:30:51;;;;;;;8.33;8.23;;;21.30;60.10;;;;;;5014823;28;20532;-57
2023/04/02 03:33:23;;;;;;;8.90;8.70;;;21.40;60.30;;;;;;5014893;28;20971;-56
2023/04/02 03:35:58;;;;;;;9.20;9.00;;;21.30;60.10;;;;;;5014937;28;20532;-57
2023/04/02 03:38:27;;;;;;;8.60;8.40;;;21.30;60.00;;;;;;5014567;28;20536;-58
2023/04/02 03:41:01;;;;;;;8.00;7.90;;;21.30;60.00;;;;;;5014986;28;21043;-57
2023/04/02 03:43:33;;;;;;;7.97;7.80;;;21.30;60.00;;;;;;5014788;28;20478;-58
2023/04/02 03:46:11;;;;;;;8.53;8.33;;;21.30;59.90;;;;;;5014606;28;20541;-55
2023/04/02 03:48:43;;;;;;;8.67;8.47;;;21.30;59.90;;;;;;5014361;28;20450;-58
2023/04/02 03:51:18;;;;;;;8.90;8.70;;;21.30;59.90;;;;;;5014693;28;20477;-58
2023/04/02 03:53:46;;;;;;;8.30;8.10;;;21.30;59.90;;;;;;5014523;28;20456;-58
2023/04/02 03:56:28;;;;;;;9.00;8.80;;;21.30;59.90;;;;;;5014573;28;20538;-58
2023/04/02 03:59:05;;;;;;;8.00;7.80;;;21.30;59.90;;;;;;5014308;28;20520;-59
2023/04/02 04:01:36;;;;;;;8.40;8.20;;;21.30;59.90;;;;;;5014379;28;21010;-59
2023/04/02 04:04:05;;;;;;;8.20;8.10;;;21.30;59.80;;;;;;5013909;28;20955;-57
2023/04/02 04:06:36;;;;;;;8.10;8.00;;;21.30;59.80;;;;;;5014184;28;20566;-59
2023/04/02 04:09:10;;;;;;;8.53;8.33;;;21.20;59.70;;;;;;5013958;28;20567;-58
2023/04/02 04:11:43;;;;;;;8.43;8.23;;;21.30;59.80;;;;;;5014257;28;20539;-58
2023/04/02 04:14:16;;;;;;;7.30;7.20;;;21.30;59.80;;;;;;5013958;28;20481;-58
2023/04/02 04:16:48;;;;;;;7.77;7.60;;;21.20;59.70;;;;;;5014047;28;20477;-57
2023/04/02 04:19:20;;;;;;;7.70;7.60;;;21.30;59.70;;;;;;5013551;28;20545;-58
2023/04/02 04:21:48;;;;;;;8.53;8.30;;;21.30;59.70;;;;;;5013345;28;20453;-57
2023/04/02 04:24:20;;;;;;;8.47;8.30;;;21.20;59.50;;;;;;5013935;28;20533;-57
2023/04/02 04:26:53;;;;;;;8.03;7.83;;;21.20;59.50;;;;;;5013692;28;20568;-56
2023/04/02 04:29:39;;;;;;;8.30;8.10;;;21.20;59.50;;;;;;5013619;28;20493;-56
2023/04/02 04:32:18;;;;;;;8.07;7.93;;;21.20;59.50;;;;;;5013792;28;20496;-57
2023/04/02 04:34:50;;;;;;;8.30;8.10;;;21.20;59.50;;;;;;5013945;28;20481;-56
2023/04/02 04:37:24;;;;;;;8.60;8.43;;;21.20;59.50;;;;;;5013654;28;20450;-58
2023/04/02 04:39:55;;;;;;;8.00;7.80;;;21.20;59.40;;;;;;5013730;28;20473;-55
2023/04/02 04:42:27;;;;;;;8.17;8.00;;;21.20;59.40;;;;;;5013673;28;20481;-59
2023/04/02 04:44:59;;;;;;;7.77;7.60;;;21.20;59.40;;;;;;5012917;28;20533;-58
2023/04/02 04:47:33;;;;;;;8.30;8.20;;;21.20;59.40;;;;;;5013481;28;20481;-56
2023/04/02 04:50:06;;;;;;;9.00;8.80;;;21.20;59.30;;;;;;5013461;28;20548;-57
2023/04/02 04:52:38;;;;;;;8.90;8.70;;;21.20;59.30;;;;;;5013649;28;20478;-59
2023/04/02 04:55:25;;;;;;;9.10;8.90;;;21.20;59.30;;;;;;5013272;28;20534;-58
2023/04/02 04:57:58;;;;;;;9.40;9.20;;;21.20;59.30;;;;;;5013255;28;20537;-55
2023/04/02 05:00:40;;;;;;;8.47;8.37;;;21.20;59.30;;;;;;5013374;28;20561;-56
2023/04/02 05:03:17;;;;;;;9.17;8.97;;;21.20;59.20;;;;;;5013099;28;20457;-59
2023/04/02 05:18:18;;;;;;;9.17;8.97;;;21.20;58.80;;;;;;5109153;27;20649;-62
2023/04/02 05:20:51;;;;;;;8.90;8.70;;;21.30;59.20;;;;;;5069642;28;20498;-62
2023/04/02 05:23:22;;;;;;;9.47;9.27;;;21.30;59.30;;;;;;5069793;28;20467;-63
2023/04/02 05:25:55;;;;;;;9.53;9.33;;;21.30;59.30;;;;;;5070743;28;20922;-62
2023/04/02 05:28:29;;;;;;;9.60;9.40;;;21.30;59.30;;;;;;5074228;28;20499;-62
2023/04/02 05:31:01;;;;;;;9.90;9.70;;;21.40;59.40;;;;;;5109916;28;20492;-60
2023/04/02 05:33:32;;;;;;;10.03;9.70;;;21.40;59.40;;;;;;5109070;28;20870;-64
2023/04/02 05:36:02;;;;;;;9.70;9.50;;;21.40;59.30;;;;;;5109376;28;20470;-62
2023/04/02 05:38:32;;;;;;;9.13;8.93;;;21.40;59.40;;;;;;5099105;28;20455;-55
2023/04/02 05:41:05;;;;;;;9.67;9.47;;;21.50;59.30;;;;;;5101428;28;20469;-59
2023/04/02 05:43:34;;;;;;;9.60;9.40;;;21.50;59.10;;;;;;5109379;28;20523;-59
2023/04/02 05:46:07;;;;;;;9.73;9.53;;;21.50;59.30;;;;;;5109892;28;20516;-56
2023/04/02 05:48:39;;;;;;;10.20;9.90;;;21.50;59.20;;;;;;5091521;28;20515;-62
2023/04/02 05:51:09;;;;;;;10.70;10.43;;;21.50;59.00;;;;;;5089235;28;20846;-58
2023/04/02 05:53:40;;;;;;;10.87;10.67;;;21.50;58.90;;;;;;5089276;28;20466;-60
2023/04/02 05:56:15;;;;;;;10.33;10.10;;;21.50;58.70;;;;;;5088748;28;20521;-61
2023/04/02 05:58:47;;;;;;;9.70;9.50;;;21.60;58.60;;;;;;5106481;28;20461;-58
2023/04/02 06:01:36;;;;;;;10.50;10.20;;;21.60;58.60;;;;;;5109156;28;20473;-58
2023/04/02 06:04:11;;;;;;;12.43;12.03;;;21.60;58.50;;;;;;5108512;28;20805;-64
2023/04/02 06:06:49;;;;;;;10.17;9.90;;;21.60;58.30;;;;;;5107534;28;20505;-61
2023/04/02 06:09:21;;;;;;;10.60;10.40;;;21.60;58.50;;;;;;5088106;28;20462;-61
2023/04/02 06:11:51;;;;;;;10.40;10.10;;;21.70;58.30;;;;;;5088353;28;20964;-62
2023/04/02 06:14:18;;;;;;;11.20;10.90;;;21.70;58.10;;;;;;5088248;28;20496;-59
2023/04/02 06:16:46;;;;;;;10.33;10.10;;;21.60;57.90;;;;;;5088279;28;20447;-62
2023/04/02 06:19:21;;;;;;;9.67;9.47;;;21.70;58.00;;;;;;5093987;28;20899;-56
2023/04/02 06:21:52;;;;;;;10.07;9.87;;;21.70;58.00;;;;;;5094734;28;20442;-58
2023/04/02 06:24:24;;;;;;;9.70;9.50;;;21.70;58.20;;;;;;5094843;28;20470;-60
2023/04/02 06:26:56;;;;;;;9.80;9.53;;;21.60;58.20;;;;;;5092850;28;20470;-64
2023/04/02 06:29:28;;;;;;;10.27;9.93;;;21.70;58.10;;;;;;5080141;28;20478;-61
2023/04/02 06:31:57;;;;;;;10.10;9.80;;;21.70;57.90;;;;;;5074218;28;20506;-61
2023/04/02 06:34:27;;;;;;;10.43;10.13;;;21.70;57.80;;;;;;5074156;28;20443;-63
2023/04/02 06:36:58;;;;;;;9.50;9.20;;;21.80;57.80;;;;;;5074656;28;20438;-61
2023/04/02 06:39:27;;;;;;;11.23;10.63;;;21.80;57.70;;;;;;5094565;28;20911;-62
2023/04/02 06:41:59;;;;;;;9.70;9.40;;;21.80;57.60;;;;;;5094868;28;20470;-60
2023/04/02 06:44:30;;;;;;;9.97;9.73;;;21.80;57.50;;;;;;5094827;28;20489;-59
2023/04/02 06:47:02;;;;;;;10.57;10.27;;;21.80;57.50;;;;;;5078850;28;20570;-54
2023/04/02 06:49:36;;;;;;;10.27;9.80;;;21.80;57.50;;;;;;5074220;28;20475;-65
2023/04/02 06:52:08;;;;;;;10.20;9.90;;;21.80;57.50;;;;;;5088877;28;20503;-66
2023/04/02 06:54:35;;;;;;;10.20;9.90;;;21.80;58.20;;;;;;5095034;28;20470;-59
2023/04/02 06:57:04;;;;;;;9.73;9.43;;;21.80;58.20;;;;;;5078051;28;20978;-63
2023/04/02 06:59:30;;;;;;;10.10;9.67;;;21.80;58.10;;;;;;5073935;28;20473;-62
2023/04/02 07:02:02;;;;;;;9.87;9.63;;;21.80;58.00;;;;;;5074134;28;20508;-64
2023/04/02 07:04:31;;;;;;;10.10;9.77;;;21.80;57.90;;;;;;5081946;28;20447;-65
2023/04/02 07:06:58;;;;;;;10.07;9.77;;;21.80;57.80;;;;;;5091091;28;20495;-64
2023/04/02 07:09:25;;;;;;;10.87;10.10;;;21.80;57.70;;;;;;5073958;28;20467;-65
2023/04/02 07:11:52;;;;;;;10.17;9.83;;;21.80;57.60;;;;;;5074159;28;20533;-63
2023/04/02 07:14:19;;;;;;;10.10;9.80;;;21.80;57.60;;;;;;5073303;28;20471;-64
2023/04/02 07:16:46;;;;;;;9.20;9.00;;;21.80;57.40;;;;;;5073067;28;20451;-60
2023/04/02 07:19:19;;;;;;;10.20;9.90;;;21.90;57.50;;;;;;5073112;28;20495;-58
2023/04/02 07:21:47;;;;;;;9.73;9.43;;;21.90;57.40;;;;;;5073352;28;20444;-58
2023/04/02 07:24:14;;;;;;;9.20;9.00;;;21.80;57.20;;;;;;5067423;28;20448;-62
2023/04/02 07:26:42;;;;;;;9.67;9.37;;;21.90;57.40;;;;;;5068914;28;20533;-63
2023/04/02 07:29:14;;;;;;;11.30;11.00;;;21.90;57.70;;;;;;5072094;28;20460;-62
2023/04/02 07:31:41;;;;;;;10.97;10.67;;;21.90;57.50;;;;;;5082772;28;20446;-63
2023/04/02 07:34:09;;;;;;;10.90;10.50;;;21.90;57.40;;;;;;5093149;28;20466;-62
2023/04/02 07:36:36;;;;;;;11.07;10.70;;;22.00;57.40;;;;;;5085353;28;20439;-61
2023/04/02 07:39:04;;;;;;;10.00;9.70;;;22.00;57.30;;;;;;5072681;28;20455;-62
2023/04/02 07:41:31;;;;;;;10.13;9.93;;;22.00;57.20;;;;;;5072377;28;20478;-63
2023/04/02 07:43:58;;;;;;;11.00;10.60;;;22.00;57.20;;;;;;5071066;28;20471;-62
2023/04/02 07:46:25;;;;;;;11.00;10.20;;;22.00;57.00;;;;;;5052797;28;20530;-58
2023/04/02 07:48:52;;;;;;;10.80;10.50;;;22.00;57.00;;;;;;5065916;28;20520;-61
2023/04/02 07:51:21;;;;;;;10.60;10.30;;;22.00;56.70;;;;;;5072620;28;20482;-57
2023/04/02 07:53:49;;;;;;;10.83;10.47;;;22.10;56.80;;;;;;5072468;28;21189;-59
2023/04/02 07:56:19;;;;;;;10.33;10.03;;;22.10;56.50;;;;;;5072444;28;20448;-57
2023/04/02 07:58:47;;;;;;;11.00;10.60;;;22.10;56.40;;;;;;5072200;28;20498;-60
2023/04/02 08:01:19;;;;;;;13.90;13.10;;;22.10;56.30;;;;;;5087121;28;20474;-60
2023/04/02 08:03:47;;;;;;;27.27;17.23;;;22.10;56.30;;;;;;5092431;28;20450;-62
2023/04/02 08:06:14;;;;;;;23.60;18.43;;;22.10;56.50;;;;;;5092783;28;20450;-62
2023/04/02 08:08:42;;;;;;;29.53;21.67;;;22.10;56.60;;;;;;5092245;28;20841;-60
2023/04/02 08:11:10;;;;;;;45.17;29.43;;;22.10;56.70;;;;;;5073924;28;20479;-61
2023/04/02 08:13:38;;;;;;;41.27;22.63;;;22.10;57.10;;;;;;5072101;28;20534;-62
2023/04/02 08:16:07;;;;;;;32.60;22.70;;;22.20;57.90;;;;;;5072330;28;20487;-60
2023/04/02 08:18:34;;;;;;;35.80;25.07;;;22.20;58.20;;;;;;5072614;28;20494;-61
2023/04/02 08:21:01;;;;;;;37.73;25.67;;;22.20;58.20;;;;;;5089456;28;20481;-60
2023/04/02 08:23:28;;;;;;;38.30;23.40;;;22.20;58.60;;;;;;5092437;28;20953;-60
2023/04/02 08:25:56;;;;;;;32.43;25.20;;;22.20;58.80;;;;;;5092575;28;20866;-59
2023/04/02 08:28:23;;;;;;;28.37;21.97;;;22.20;59.10;;;;;;5091830;28;20486;-60
2023/04/02 08:30:52;;;;;;;40.40;23.17;;;22.20;59.30;;;;;;5089958;28;20537;-61
2023/04/02 08:33:19;;;;;;;33.10;25.03;;;22.20;59.80;;;;;;5092089;28;20446;-61
2023/04/02 08:35:46;;;;;;;28.50;20.77;;;22.20;61.60;;;;;;5092007;28;20489;-60
2023/04/02 08:38:15;;;;;;;26.63;19.53;;;22.30;61.50;;;;;;5091819;28;20486;-58
2023/04/02 08:40:44;;;;;;;28.83;20.20;;;22.30;61.00;;;;;;5081129;28;20956;-58
2023/04/02 08:43:37;;;;;;;25.00;22.10;;;22.20;60.70;;;;;;5071762;28;20779;-61
2023/04/02 08:46:18;;;;;;;22.57;20.27;;;22.20;61.10;;;;;;5071691;28;20497;-58
2023/04/02 08:48:51;;;;;;;30.83;21.63;;;22.30;61.50;;;;;;5071327;28;20483;-58
2023/04/02 08:51:23;;;;;;;28.43;20.20;;;22.20;61.20;;;;;;5088742;28;20446;-58
2023/04/02 08:53:53;;;;;;;22.23;20.07;;;22.20;61.10;;;;;;5091893;28;20800;-62
2023/04/02 08:56:26;;;;;;;22.77;18.97;;;22.20;61.10;;;;;;5091834;28;20469;-59
2023/04/02 08:58:56;;;;;;;33.20;20.40;;;22.30;61.60;;;;;;5080670;28;20494;-59
2023/04/02 09:01:35;;;;;;;23.47;20.70;;;22.20;61.70;;;;;;5071494;28;20443;-59
2023/04/02 09:04:05;;;;;;;23.97;19.93;;;22.30;61.90;;;;;;5071528;28;20485;-58
2023/04/02 09:06:34;;;;;;;19.17;17.47;;;22.20;61.60;;;;;;5072396;28;20483;-61
2023/04/02 09:09:00;;;;;;;22.53;19.87;;;22.30;61.60;;;;;;5071361;28;20491;-61
2023/04/02 09:11:34;;;;;;;19.83;16.70;;;22.20;61.30;;;;;;5071416;28;20994;-59
2023/04/02 09:14:05;;;;;;;25.43;21.90;;;22.30;61.10;;;;;;5072664;28;20461;-60
2023/04/02 09:16:43;;;;;;;19.83;17.80;;;22.30;60.70;;;;;;5089924;28;20883;-64
2023/04/02 09:19:19;;;;;;;19.10;17.43;;;22.30;60.10;;;;;;5091431;28;20519;-61
2023/04/02 09:21:55;;;;;;;23.67;16.73;;;22.30;61.00;;;;;;5080961;28;20479;-61
2023/04/02 09:24:22;;;;;;;17.00;15.30;;;22.30;60.80;;;;;;5071269;28;20453;-62
2023/04/02 09:26:49;;;;;;;18.30;16.63;;;22.30;60.50;;;;;;5071143;28;20545;-59
2023/04/02 09:29:48;;;;;;;16.93;15.30;;;22.30;60.40;;;;;;5071095;28;20501;-60
2023/04/02 09:32:30;;;;;;;15.67;14.03;;;22.30;60.40;;;;;;5056282;28;20875;-60
2023/04/02 09:35:14;;;;;;;14.83;13.53;;;22.30;60.10;;;;;;5071351;28;20858;-59
2023/04/02 09:37:42;;;;;;;14.80;13.80;;;22.30;59.80;;;;;;5071019;28;20459;-54
2023/04/02 09:40:25;;;;;;;22.00;17.30;;;22.30;59.50;;;;;;5072131;28;20459;-56
2023/04/02 09:43:04;;;;;;;18.53;15.20;;;22.30;59.40;;;;;;5061748;28;20446;-59
2023/04/02 09:45:31;;;;;;;16.27;15.17;;;22.30;59.60;;;;;;5091392;28;20521;-58
2023/04/02 09:47:59;;;;;;;16.13;15.13;;;22.30;59.30;;;;;;5090946;28;20578;-58
2023/04/02 09:50:29;;;;;;;14.67;13.53;;;22.30;59.10;;;;;;5091218;28;20446;-59
2023/04/02 09:52:56;;;;;;;14.37;13.37;;;22.30;58.90;;;;;;5087511;28;20447;-60
2023/04/02 09:55:27;;;;;;;14.33;13.07;;;22.30;58.90;;;;;;5084899;28;20494;-57
2023/04/02 09:58:11;;;;;;;14.67;13.40;;;22.30;58.80;;;;;;5074364;28;20463;-57
2023/04/02 10:00:39;;;;;;;13.87;12.77;;;22.30;58.80;;;;;;5074703;28;20505;-54
2023/04/02 10:03:22;;;;;;;13.53;12.73;;;22.30;58.70;;;;;;5074695;28;20443;-59
2023/04/02 10:06:03;;;;;;;13.00;12.13;;;22.20;58.60;;;;;;5085137;28;20885;-60
2023/04/02 10:08:31;;;;;;;13.70;12.50;;;22.30;58.60;;;;;;5094424;28;20569;-58
2023/04/02 10:11:02;;;;;;;13.90;12.80;;;22.20;58.50;;;;;;5094827;28;20485;-58
2023/04/02 10:13:31;;;;;;;14.87;13.90;;;22.30;58.50;;;;;;5094723;28;20539;-60
2023/04/02 10:16:01;;;;;;;14.47;13.37;;;22.30;58.50;;;;;;5094640;28;20458;-56
2023/04/02 10:18:41;;;;;;;13.37;12.57;;;22.20;58.40;;;;;;5075801;28;20494;-61
2023/04/02 10:21:11;;;;;;;13.77;12.87;;;22.20;58.40;;;;;;5074325;28;20968;-59
2023/04/02 10:23:39;;;;;;;12.67;11.90;;;22.20;58.50;;;;;;5074691;28;20927;-57
2023/04/02 10:26:32;;;;;;;12.23;11.60;;;22.10;58.60;;;;;;5074235;28;21015;-60
2023/04/02 10:29:14;;;;;;;12.90;12.00;;;22.10;58.70;;;;;;5081457;28;20980;-59
2023/04/02 10:31:52;;;;;;;12.10;11.40;;;22.10;58.80;;;;;;5094450;28;20854;-58
2023/04/02 10:34:27;;;;;;;12.63;12.03;;;22.00;58.80;;;;;;5094455;28;20549;-61
2023/04/02 10:36:58;;;;;;;11.80;11.00;;;22.00;58.80;;;;;;5094117;28;20438;-57
2023/04/02 10:39:30;;;;;;;12.27;11.30;;;22.00;58.90;;;;;;5094161;28;20497;-59
2023/04/02 10:42:03;;;;;;;12.20;11.30;;;21.90;58.90;;;;;;5076318;28;20500;-60
2023/04/02 10:44:53;;;;;;;11.80;11.20;;;21.90;59.00;;;;;;5073812;28;20589;-61
2023/04/02 10:47:36;;;;;;;11.70;11.10;;;21.90;59.10;;;;;;5073637;28;20603;-60
2023/04/02 10:50:23;;;;;;;12.57;11.97;;;21.80;59.10;;;;;;5073939;28;20448;-62
2023/04/02 10:52:57;;;;;;;10.93;10.13;;;21.80;59.10;;;;;;5077958;28;20450;-62
2023/04/02 10:55:30;;;;;;;12.23;11.60;;;21.80;59.20;;;;;;5083659;28;20865;-63
2023/04/02 10:58:05;;;;;;;11.87;11.27;;;21.80;59.30;;;;;;5073370;28;20451;-59
2023/04/02 11:00:38;;;;;;;11.83;11.23;;;21.80;58.90;;;;;;5073613;28;20482;-60
2023/04/02 11:03:08;;;;;;;11.50;10.80;;;21.90;58.90;;;;;;5079941;28;20443;-57
2023/04/02 11:05:43;;;;;;;11.17;10.70;;;21.80;58.80;;;;;;5093633;28;20937;-61
2023/04/02 11:08:18;;;;;;;11.93;11.53;;;21.80;58.80;;;;;;5093344;28;20481;-62
2023/04/02 11:10:48;;;;;;;11.60;11.10;;;21.90;59.00;;;;;;5092844;28;20476;-63
2023/04/02 11:13:22;;;;;;;11.77;11.27;;;21.90;59.10;;;;;;5073359;28;20482;-61
2023/04/02 11:15:49;;;;;;;10.87;10.37;;;21.90;58.90;;;;;;5073223;28;20439;-61
2023/04/02 11:18:27;;;;;;;11.40;11.00;;;22.00;58.80;;;;;;5073004;28;20495;-58
2023/04/02 11:21:06;;;;;;;12.43;12.00;;;22.00;58.50;;;;;;5073823;28;20486;-60
2023/04/02 11:23:53;;;;;;;10.87;10.47;;;22.00;58.40;;;;;;5053368;28;20477;-58
2023/04/02 11:26:34;;;;;;;11.97;11.47;;;22.00;58.30;;;;;;5053206;28;20472;-60
2023/04/02 11:29:13;;;;;;;10.13;9.53;;;22.00;58.10;;;;;;5051772;28;20513;-59
2023/04/02 11:31:41;;;;;;;10.57;10.17;;;22.00;57.90;;;;;;5089566;23;20549;-63
2023/04/02 11:34:13;;;;;;;10.93;10.50;;;22.00;57.70;;;;;;5058733;28;20832;-69
2023/04/02 11:37:01;;;;;;;11.70;11.20;;;22.10;57.60;;;;;;5054797;28;20446;-66
2023/04/02 11:39:52;;;;;;;11.50;11.00;;;22.10;57.60;;;;;;5053999;28;20478;-65
2023/04/02 11:42:31;;;;;;;11.57;11.07;;;22.10;57.60;;;;;;5053984;28;20458;-66
2023/04/02 11:45:01;;;;;;;11.40;11.00;;;22.00;57.50;;;;;;5052871;28;20475;-64
2023/04/02 11:47:29;;;;;;;11.33;10.90;;;22.00;57.60;;;;;;5052628;28;20468;-64
2023/04/02 11:50:06;;;;;;;12.03;11.53;;;22.00;57.60;;;;;;5052636;28;20479;-65
2023/04/02 11:52:50;;;;;;;12.20;11.40;;;22.00;57.60;;;;;;5052997;28;20447;-64
2023/04/02 11:55:31;;;;;;;11.27;10.57;;;21.90;57.50;;;;;;5052658;28;20471;-64
2023/04/02 11:58:55;;;;;;;10.43;10.07;;;22.00;57.50;;;;;;5052289;28;20927;-64
2023/04/02 12:01:53;;;;;;;10.40;10.10;;;21.90;57.40;;;;;;5037042;28;21002;-64
2023/04/02 12:05:02;;;;;;;10.00;9.80;;;21.90;57.40;;;;;;5054178;28;20491;-63
2023/04/02 12:07:54;;;;;;;10.57;10.23;;;21.90;57.40;;;;;;5052155;28;20456;-64
2023/04/02 12:10:24;;;;;;;11.00;10.60;;;21.90;57.40;;;;;;5052381;28;20468;-62
2023/04/02 12:12:51;;;;;;;10.77;10.27;;;21.90;57.30;;;;;;5053296;28;20437;-66
2023/04/02 12:15:46;;;;;;;10.20;9.90;;;22.00;57.30;;;;;;5051759;28;20915;-66
2023/04/02 12:18:19;;;;;;;11.73;11.00;;;21.90;57.10;;;;;;5049910;28;20476;-67
2023/04/02 12:20:48;;;;;;;11.50;11.00;;;22.00;57.20;;;;;;5052062;28;20588;-65
2023/04/02 12:23:28;;;;;;;10.67;10.37;;;21.90;57.10;;;;;;5053174;28;20439;-61
2023/04/02 12:25:59;;;;;;;10.50;10.10;;;22.00;57.20;;;;;;5052057;28;21003;-62
2023/04/02 12:28:28;;;;;;;10.33;10.00;;;21.90;57.00;;;;;;5051654;28;20575;-60
2023/04/02 12:31:04;;;;;;;10.23;9.93;;;21.90;56.90;;;;;;5051828;28;20484;-62
2023/04/02 12:33:36;;;;;;;10.40;10.10;;;21.90;56.90;;;;;;5055778;28;20828;-65
2023/04/02 12:36:08;;;;;;;11.53;10.93;;;21.90;57.00;;;;;;5051928;28;20444;-65
2023/04/02 12:38:45;;;;;;;9.40;9.00;;;21.90;57.10;;;;;;5050478;28;20442;-66
2023/04/02 12:41:23;;;;;;;9.60;9.40;;;21.90;56.90;;;;;;5051812;28;20704;-67
2023/04/02 12:43:57;;;;;;;10.60;10.30;;;22.00;56.70;;;;;;5051732;28;20448;-65
2023/04/02 12:46:25;;;;;;;10.57;10.27;;;22.00;56.50;;;;;;5062637;28;20443;-59
2023/04/02 12:48:53;;;;;;;10.17;9.87;;;22.00;56.60;;;;;;5071641;28;20915;-61
2023/04/02 12:51:20;;;;;;;11.53;10.60;;;22.00;56.60;;;;;;5071736;28;20529;-60
2023/04/02 12:53:51;;;;;;;10.20;9.90;;;22.00;56.40;;;;;;5071766;28;20520;-61
2023/04/02 12:56:20;;;;;;;10.60;10.20;;;21.90;55.90;;;;;;5070140;28;20470;-63
2023/04/02 12:58:53;;;;;;;10.50;10.20;;;21.90;56.30;;;;;;5031641;28;20496;-61
2023/04/02 13:01:22;;;;;;;10.47;10.17;;;21.90;56.40;;;;;;5031619;28;20544;-63
2023/04/02 13:04:03;;;;;;;10.30;10.00;;;21.90;56.40;;;;;;5031653;28;20452;-63
2023/04/02 13:06:30;;;;;;;9.10;8.60;;;21.90;56.40;;;;;;5049005;28;20466;-58
2023/04/02 13:09:00;;;;;;;11.60;11.10;;;21.80;56.50;;;;;;5052122;28;20491;-58
2023/04/02 13:11:35;;;;;;;11.53;11.03;;;21.90;56.40;;;;;;5052955;28;20506;-57
2023/04/02 13:14:04;;;;;;;11.10;10.50;;;21.90;56.20;;;;;;5062122;28;20482;-58
2023/04/02 13:16:35;;;;;;;10.57;10.27;;;21.90;56.20;;;;;;5063743;28;20815;-57
2023/04/02 13:19:21;;;;;;;10.77;10.47;;;21.90;56.20;;;;;;5052593;28;20468;-60
2023/04/02 13:21:49;;;;;;;11.33;10.20;;;21.90;56.00;;;;;;5053342;28;20476;-57